Time;durP1;ratioP1;P1;durP2;ratioP2;P2;SDS_P1;SDS_P2;PMS_P1;PMS_P2;Temp;Humidity;BMP_temperature;BMP_pressure;BME280_temperature;BME280_humidity;BME280_pressure;Samples;Min_cycle;Max_cycle;Signal;HPM_P1;HPM_P2
2021/11/01 00:02:18;;;;;;;;;0.00;0.00;;;;;11.39;67.94;99805.56;5081536;28;45460;-85
2021/11/01 00:04:44;;;;;;;;;2.50;1.50;;;;;11.54;67.93;99832.34;5086193;28;45359;-85
2021/11/01 00:07:13;;;;;;;;;0.00;0.00;;;;;11.07;68.44;99754.63;5085802;28;45430;-85
2021/11/01 00:09:39;;;;;;;;;0.00;0.00;;;;;11.12;67.97;99752.81;5063947;28;47083;-85
2021/11/01 00:12:05;;;;;;;;;0.00;0.00;;;;;11.59;68.03;99812.31;5083498;28;45384;-85
2021/11/01 00:14:30;;;;;;;;;0.00;0.00;;;;;11.08;67.94;99743.31;5083934;28;45445;-86
2021/11/01 00:16:57;;;;;;;;;0.00;0.00;;;;;11.57;68.32;99823.59;5083627;28;45473;-85
2021/11/01 00:19:24;;;;;;;;;0.00;0.00;;;;;11.53;68.46;99815.84;5082900;28;45571;-85
2021/11/01 00:21:49;;;;;;;;;0.00;0.00;;;;;11.04;68.22;99733.81;5062019;28;45342;-85
2021/11/01 00:24:15;;;;;;;;;0.00;0.00;;;;;11.45;68.47;99788.13;5064169;28;45425;-85
2021/11/01 00:26:40;;;;;;;;;1.75;0.00;;;;;10.91;67.93;99722.66;5066778;28;45665;-85
2021/11/01 00:29:06;;;;;;;;;0.00;0.00;;;;;11.50;68.22;99821.09;5085291;28;45468;-86
2021/11/01 00:31:32;;;;;;;;;0.00;0.00;;;;;11.49;68.48;99801.09;5081985;28;45289;-85
2021/11/01 00:33:57;;;;;;;;;0.00;0.00;;;;;11.46;68.59;99802.88;5074914;28;45350;-86
2021/11/01 00:36:23;;;;;;;;;0.00;0.00;;;;;11.46;68.81;99810.72;5081380;28;45469;-86
2021/11/01 00:38:48;;;;;;;;;0.00;0.00;;;;;10.85;68.58;99705.34;5083574;28;46582;-84
2021/11/01 00:41:15;;;;;;;;;0.00;0.00;;;;;11.44;69.21;99792.47;5083022;28;45334;-85
2021/11/01 00:43:41;;;;;;;;;0.00;0.00;;;;;10.96;68.99;99715.66;5066557;28;45383;-84
2021/11/01 00:46:07;;;;;;;;;0.00;0.00;;;;;11.21;69.00;99751.88;5099364;28;44770;-86
2021/11/01 00:48:33;;;;;;;;;0.00;0.00;;;;;11.47;68.93;99788.97;5057746;28;46963;-84
2021/11/01 00:50:58;;;;;;;;;0.00;0.00;;;;;11.32;68.86;99761.31;5068876;28;45454;-85
2021/11/01 00:53:30;;;;;;;;;0.00;0.00;;;;;11.37;68.80;99767.38;5074211;28;45543;-85
2021/11/01 00:56:00;;;;;;;;;0.00;0.00;;;;;11.30;68.78;99745.69;5074601;28;45339;-85
2021/11/01 00:58:27;;;;;;;;;0.00;0.00;;;;;11.14;68.90;99724.16;5082392;28;45371;-85
2021/11/01 01:00:53;;;;;;;;;0.00;0.00;;;;;10.77;68.56;99668.97;5064879;28;45716;-85
2021/11/01 01:03:20;;;;;;;;;0.00;0.00;;;;;11.15;69.07;99741.53;5083077;28;45354;-84
2021/11/01 01:05:47;;;;;;;;;0.25;0.00;;;;;10.45;68.48;99624.97;5083289;28;45583;-85
2021/11/01 01:08:17;;;;;;;;;0.00;0.00;;;;;11.25;69.02;99769.22;5062357;28;48621;-84
2021/11/01 01:10:43;;;;;;;;;0.00;0.00;;;;;11.27;68.82;99762.22;5084257;28;45342;-85
2021/11/01 01:13:09;;;;;;;;;0.00;0.00;;;;;10.87;68.97;99705.31;5083339;28;45241;-85
2021/11/01 01:18:23;;;;;;;;;0.00;0.00;;;;;11.11;68.92;99739.81;5080811;28;45888;-84
2021/11/01 01:20:50;;;;;;;;;0.00;0.00;;;;;10.62;68.65;99664.75;5064755;28;45308;-85
2021/11/01 01:23:15;;;;;;;;;0.00;0.00;;;;;10.98;70.38;99710.44;5057731;28;45442;-85
2021/11/01 01:25:44;;;;;;;;;0.00;0.00;;;;;11.10;69.41;99728.56;5079877;28;45297;-85
2021/11/01 01:28:11;;;;;;;;;0.00;0.00;;;;;11.30;69.14;99739.66;5063384;28;45382;-85
2021/11/01 01:30:37;;;;;;;;;0.00;0.00;;;;;11.18;69.03;99736.25;5083714;28;45363;-85
2021/11/01 01:33:02;;;;;;;;;0.00;0.00;;;;;11.37;69.31;99743.91;5082406;28;45464;-85
2021/11/01 01:35:30;;;;;;;;;0.00;0.00;;;;;11.28;69.22;99737.06;5083271;28;45342;-85
2021/11/01 01:37:56;;;;;;;;;0.00;0.00;;;;;11.30;69.27;99743.09;5063513;28;46440;-85
2021/11/01 01:40:22;;;;;;;;;0.00;0.00;;;;;11.02;69.46;99671.31;5064380;28;45396;-85
2021/11/01 01:42:48;;;;;;;;;0.00;0.00;;;;;11.22;69.43;99724.09;5082703;28;45358;-86
2021/11/01 01:45:14;;;;;;;;;0.00;0.00;;;;;10.74;69.00;99639.47;5082727;28;45461;-86
2021/11/01 01:47:41;;;;;;;;;0.00;0.00;;;;;11.36;69.29;99748.25;5080921;28;45479;-85
2021/11/01 01:50:09;;;;;;;;;0.00;0.00;;;;;10.90;69.14;99695.75;5082337;28;45555;-85
2021/11/01 01:52:35;;;;;;;;;1.00;0.00;;;;;11.25;69.25;99742.28;5064044;28;45333;-85
2021/11/01 01:55:00;;;;;;;;;0.00;0.00;;;;;10.84;69.18;99677.56;5083322;28;45560;-85
2021/11/01 01:57:26;;;;;;;;;0.00;0.00;;;;;10.58;69.29;99624.03;5085190;28;45284;-85
2021/11/01 01:59:51;;;;;;;;;0.00;0.00;;;;;10.92;69.34;99681.84;5062664;28;45427;-85
2021/11/01 02:02:17;;;;;;;;;0.50;0.50;;;;;10.84;68.86;99667.16;5064065;28;45236;-86
2021/11/01 02:04:43;;;;;;;;;0.00;0.00;;;;;11.23;69.25;99736.22;5087100;28;45216;-85
2021/11/01 02:07:13;;;;;;;;;0.00;0.00;;;;;10.57;68.92;99637.91;5084647;28;45470;-85
2021/11/01 02:10:07;;;;;;;;;0.00;0.00;;;;;11.22;68.88;99721.47;5084528;28;45467;-85
2021/11/01 02:12:41;;;;;;;;;2.00;0.00;;;;;11.18;68.96;99725.84;5066959;28;45421;-85
2021/11/01 02:15:30;;;;;;;;;0.00;0.00;;;;;11.05;69.00;99724.28;5073260;28;45469;-85
2021/11/01 02:17:57;;;;;;;;;0.00;0.00;;;;;10.69;69.03;99659.50;5084544;28;45373;-85
2021/11/01 02:20:35;;;;;;;;;0.00;0.00;;;;;11.12;69.12;99739.78;5061837;28;45280;-85
2021/11/01 02:23:23;;;;;;;;;0.00;0.00;;;;;10.93;68.94;99720.88;5063739;28;45707;-85
2021/11/01 02:25:52;;;;;;;;;0.00;0.00;;;;;10.99;68.81;99726.03;5065410;28;45497;-85
2021/11/01 02:28:22;;;;;;;;;0.00;0.00;;;;;11.05;68.76;99750.31;5049926;28;45861;-85
2021/11/01 02:30:50;;;;;;;;;0.00;0.00;;;;;10.25;68.78;99610.38;5059219;28;45419;-85
2021/11/01 02:33:18;;;;;;;;;0.00;0.00;;;;;11.03;68.78;99745.13;5079104;28;45379;-85
2021/11/01 02:35:44;;;;;;;;;0.00;0.00;;;;;10.48;68.61;99669.22;5067886;28;45489;-85
2021/11/01 02:38:16;;;;;;;;;0.00;0.00;;;;;10.97;68.67;99751.22;5066921;28;47098;-85
2021/11/01 02:40:42;;;;;;;;;0.00;0.00;;;;;10.57;68.90;99700.34;5086253;28;45311;-85
2021/11/01 02:43:07;;;;;;;;;0.00;0.00;;;;;10.95;68.65;99752.13;5080849;28;45635;-85
2021/11/01 02:45:34;;;;;;;;;0.00;0.00;;;;;10.67;68.88;99715.91;5067423;28;45586;-86
2021/11/01 02:48:00;;;;;;;;;0.00;0.00;;;;;10.66;69.05;99714.19;5084680;28;45538;-86
2021/11/01 02:50:26;;;;;;;;;1.00;1.00;;;;;10.23;69.16;99653.78;5083563;28;45393;-85
2021/11/01 02:52:51;;;;;;;;;0.00;0.00;;;;;10.58;69.06;99714.25;5083807;28;45468;-85
2021/11/01 02:55:19;;;;;;;;;0.00;0.00;;;;;10.38;69.20;99679.66;5077936;28;45389;-86
2021/11/01 02:57:45;;;;;;;;;0.50;0.50;;;;;10.59;69.14;99721.16;5086453;28;45392;-85
2021/11/01 03:00:12;;;;;;;;;1.25;0.00;;;;;10.66;69.47;99720.25;5094554;28;44752;-84
2021/11/01 03:02:38;;;;;;;;;0.00;0.00;;;;;10.64;69.69;99725.47;5100741;28;45221;-85
2021/11/01 03:05:07;;;;;;;;;0.00;0.00;;;;;10.59;69.66;99723.75;5086588;28;45466;-85
2021/11/01 03:07:35;;;;;;;;;0.00;0.00;;;;;10.42;69.41;99701.31;5081104;28;46715;-85
2021/11/01 03:10:03;;;;;;;;;0.00;0.00;;;;;10.57;69.82;99738.53;5083864;28;45778;-85
2021/11/01 03:12:29;;;;;;;;;0.00;0.00;;;;;10.55;70.10;99733.34;5083356;28;45399;-85
2021/11/01 03:14:57;;;;;;;;;0.00;0.00;;;;;10.42;69.84;99706.53;5084437;28;45623;-84
2021/11/01 03:17:24;;;;;;;;;0.00;0.00;;;;;10.43;69.87;99694.38;5084500;28;45677;-85
2021/11/01 03:20:04;;;;;;;;;0.00;0.00;;;;;10.52;70.13;99716.03;5070433;28;45488;-87
2021/11/01 03:22:36;;;;;;;;;0.50;0.00;;;;;10.10;69.91;99661.66;5062959;28;45379;-84
2021/11/01 03:25:06;;;;;;;;;0.00;0.00;;;;;10.21;69.97;99676.31;5083085;28;46067;-85
2021/11/01 03:27:34;;;;;;;;;0.00;0.00;;;;;10.51;70.15;99731.66;5083446;28;45286;-84
2021/11/01 03:30:03;;;;;;;;;0.00;0.00;;;;;10.39;70.08;99699.59;5063827;28;45394;-84
2021/11/01 03:32:31;;;;;;;;;0.00;0.00;;;;;9.76;70.14;99597.75;5074709;28;45289;-85
2021/11/01 03:34:59;;;;;;;;;0.00;0.00;;;;;10.58;70.19;99740.25;5064874;28;45556;-85
2021/11/01 03:37:25;;;;;;;;;0.00;0.00;;;;;10.48;69.90;99711.69;5084481;28;45565;-86
2021/11/01 03:39:52;;;;;;;;;0.00;0.00;;;;;10.36;70.03;99690.97;5065308;28;45406;-84
2021/11/01 03:42:17;;;;;;;;;2.25;0.00;;;;;10.30;69.83;99685.78;5085096;28;45501;-84
2021/11/01 03:44:48;;;;;;;;;1.00;0.00;;;;;10.49;69.99;99730.78;5083706;28;45449;-84
2021/11/01 03:47:16;;;;;;;;;0.00;0.00;;;;;10.24;70.00;99691.91;5084186;28;45686;-84
2021/11/01 03:49:51;;;;;;;;;0.00;0.00;;;;;10.55;69.90;99742.88;5046625;28;45409;-84
2021/11/01 03:52:22;;;;;;;;;0.00;0.00;;;;;10.54;70.00;99739.44;5065631;28;45331;-84
2021/11/01 03:54:49;;;;;;;;;0.00;0.00;;;;;10.17;70.12;99685.88;5082809;28;45487;-84
2021/11/01 03:57:14;;;;;;;;;0.00;0.00;;;;;10.17;69.92;99685.88;5083698;28;45533;-85
2021/11/01 03:59:40;;;;;;;;;0.00;0.00;;;;;10.36;70.10;99712.63;5083356;28;45427;-84
2021/11/01 04:02:10;;;;;;;;;0.00;0.00;;;;;10.36;69.79;99702.22;5068247;28;45415;-85
2021/11/01 04:04:36;;;;;;;;;0.00;0.00;;;;;10.46;69.96;99730.81;5064547;28;45575;-84
2021/11/01 04:07:01;;;;;;;;;0.00;0.00;;;;;10.56;69.83;99736.81;5066518;28;45977;-84
2021/11/01 04:09:27;;;;;;;;;0.00;0.00;;;;;9.71;69.48;99619.44;5081147;28;45390;-85
2021/11/01 04:11:53;;;;;;;;;0.00;0.00;;;;;10.45;69.94;99761.19;5083167;28;45318;-84
2021/11/01 04:14:22;;;;;;;;;0.00;0.00;;;;;10.46;70.13;99765.50;5083564;28;45571;-84
2021/11/01 04:16:52;;;;;;;;;0.00;0.00;;;;;9.85;69.47;99642.72;5083316;28;45308;-84
2021/11/01 04:21:47;;;;;;;;;0.50;0.00;;;;;10.48;69.72;99721.25;5083667;28;45529;-85
2021/11/01 04:24:15;;;;;;;;;0.00;0.00;;;;;10.35;69.87;99697.03;5083460;28;45408;-84
2021/11/01 04:26:43;;;;;;;;;0.00;0.00;;;;;10.65;69.70;99767.97;5065242;28;45642;-84
2021/11/01 04:29:09;;;;;;;;;0.00;0.00;;;;;10.35;69.47;99720.47;5065487;28;45293;-84
2021/11/01 04:31:38;;;;;;;;;0.00;0.00;;;;;10.48;69.40;99749.88;5082419;28;45456;-84
2021/11/01 04:34:22;;;;;;;;;0.00;0.00;;;;;10.49;69.17;99742.06;5069378;28;45663;-88
2021/11/01 04:36:51;;;;;;;;;0.00;0.00;;;;;10.12;69.01;99698.91;5068300;28;46066;-85
2021/11/01 04:39:33;;;;;;;;;0.00;0.00;;;;;10.50;69.45;99768.94;5065944;28;45696;-84
2021/11/01 04:55:23;;;;;;;;;0.00;0.00;;;;;10.62;68.82;99775.78;5074929;28;45241;-85
2021/11/01 04:57:49;;;;;;;;;0.75;0.00;;;;;10.66;68.81;99781.84;5081203;28;45363;-86
2021/11/01 05:00:15;;;;;;;;;0.00;0.00;;;;;10.36;68.70;99719.56;5066199;28;45538;-85
2021/11/01 05:02:45;;;;;;;;;0.00;0.00;;;;;10.61;68.61;99756.72;5084096;28;45288;-85
2021/11/01 05:05:11;;;;;;;;;1.00;1.00;;;;;10.46;69.00;99754.22;5083848;28;45188;-82
2021/11/01 05:07:36;;;;;;;;;0.00;0.00;;;;;10.07;68.58;99674.66;5064576;28;46234;-85
2021/11/01 05:10:08;;;;;;;;;0.00;0.00;;;;;10.29;68.54;99699.69;5084733;28;45367;-85
2021/11/01 05:12:39;;;;;;;;;0.00;0.00;;;;;10.68;68.56;99744.53;5088422;28;45260;-84
2021/11/01 05:20:24;;;;;;;;;0.00;0.00;;;;;10.41;68.32;99701.34;5087416;28;45360;-85
2021/11/01 05:23:05;;;;;;;;;0.00;0.00;;;;;10.82;68.86;99767.84;5063783;28;45345;-85
2021/11/01 05:25:54;;;;;;;;;0.00;0.00;;;;;10.82;68.48;99764.38;5073664;28;45499;-84
2021/11/01 05:28:41;;;;;;;;;0.00;0.00;;;;;10.84;68.37;99767.84;5081285;28;46034;-84
2021/11/01 05:31:14;;;;;;;;;0.00;0.00;;;;;10.60;68.53;99738.53;5082457;28;47075;-83
2021/11/01 05:36:24;;;;;;;;;0.00;0.00;;;;;10.48;68.90;99727.31;5083832;28;45314;-85
2021/11/01 05:38:49;;;;;;;;;0.00;0.00;;;;;10.51;68.61;99729.88;5081808;28;46384;-85
2021/11/01 05:41:16;;;;;;;;;0.00;0.00;;;;;10.50;68.66;99735.09;5082659;28;45279;-85
2021/11/01 05:43:42;;;;;;;;;0.00;0.00;;;;;10.61;68.92;99742.84;5080668;28;45459;-85
2021/11/01 05:46:07;;;;;;;;;0.00;0.00;;;;;10.42;68.72;99708.25;5082010;28;45509;-84
2021/11/01 05:48:33;;;;;;;;;0.00;0.00;;;;;10.64;68.63;99743.69;5082577;28;45441;-85
2021/11/01 05:50:58;;;;;;;;;0.00;0.00;;;;;10.82;68.62;99788.69;5084344;28;45404;-85
2021/11/01 05:53:27;;;;;;;;;0.00;0.00;;;;;9.98;68.96;99640.91;5081182;28;46661;-85
2021/11/01 05:56:21;;;;;;;;;0.00;0.00;;;;;10.46;68.84;99728.19;5077700;28;45495;-83
2021/11/01 06:04:08;;;;;;;;;0.00;0.00;;;;;10.46;68.69;99738.59;5081705;28;45309;-82
2021/11/01 06:14:48;;;;;;;;;0.50;0.00;;;;;10.23;68.47;99724.84;5072473;28;46067;-83
2021/11/01 06:17:15;;;;;;;;;0.00;0.00;;;;;9.98;68.83;99700.72;5063763;28;45525;-81
2021/11/01 06:19:40;;;;;;;;;0.00;0.00;;;;;10.58;68.86;99794.91;5073966;28;45545;-81
2021/11/01 06:22:05;;;;;;;;;0.00;0.00;;;;;10.58;69.08;99803.59;5052898;28;45882;-81
2021/11/01 06:24:48;;;;;;;;;0.00;0.00;;;;;10.55;69.10;99797.53;5073489;28;45560;-80
2021/11/01 06:27:16;;;;;;;;;0.00;0.00;;;;;10.49;69.00;99788.03;5072088;28;45469;-81
2021/11/01 06:40:39;;;;;;;;;0.00;0.00;;;;;10.52;69.25;99808.84;5081132;28;45529;-86
2021/11/01 07:20:15;;;;;;;;;0.75;0.25;;;;;10.49;69.61;99806.25;5078890;28;45595;-80
2021/11/01 09:01:48;;;;;;;;;0.00;0.00;;;;;11.76;66.44;99825.16;5078854;28;45415;-86
2021/11/01 09:04:30;;;;;;;;;0.25;0.25;;;;;11.54;66.32;99795.84;5077262;28;45544;-86
2021/11/01 09:07:14;;;;;;;;;0.00;0.00;;;;;11.67;65.99;99809.59;5080745;28;45497;-85
2021/11/01 09:26:03;;;;;;;;;0.00;0.00;;;;;12.01;63.93;99771.84;5084880;28;45529;-86
2021/11/01 09:41:32;;;;;;;;;0.00;0.00;;;;;13.23;63.25;99861.53;5100242;28;44938;-88
2021/11/01 09:43:59;;;;;;;;;0.00;0.00;;;;;13.25;63.10;99863.22;5087836;27;45481;-83
2021/11/01 09:46:26;;;;;;;;;0.75;0.00;;;;;13.31;63.04;99864.84;5075332;28;45421;-82
2021/11/01 09:49:12;;;;;;;;;0.00;0.00;;;;;13.13;62.47;99827.69;5041859;28;45643;-80
2021/11/01 09:51:37;;;;;;;;;0.00;0.00;;;;;13.01;62.61;99817.44;5048446;28;45488;-88
2021/11/01 09:54:05;;;;;;;;;0.00;0.00;;;;;13.14;62.80;99825.94;5054620;28;46268;-84
2021/11/01 09:59:12;;;;;;;;;0.00;0.00;;;;;13.14;62.13;99820.72;5080431;28;45516;-84
2021/11/01 10:01:39;;;;;;;;;0.00;0.00;;;;;12.79;62.51;99778.59;5074223;28;45507;-88
2021/11/01 10:04:14;;;;;;;;;0.00;0.00;;;;;13.10;62.18;99809.44;5052432;28;45529;-82
2021/11/01 10:06:40;;;;;;;;;0.00;0.00;;;;;13.14;62.21;99818.97;5074754;28;45445;-83
2021/11/01 10:09:12;;;;;;;;;0.00;0.00;;;;;12.82;62.26;99756.78;5080755;28;45474;-86
2021/11/01 10:11:41;;;;;;;;;0.00;0.00;;;;;13.27;62.36;99824.84;5081878;28;46325;-86
2021/11/01 10:14:10;;;;;;;;;0.00;0.00;;;;;12.87;60.88;99766.31;5073214;28;45464;-80
2021/11/01 10:19:40;;;;;;;;;0.00;0.00;;;;;13.30;60.04;99842.22;5084141;28;45524;-83
2021/11/01 10:22:17;;;;;;;;;0.00;0.00;;;;;13.26;60.21;99843.19;5076196;28;47082;-83
2021/11/01 10:24:43;;;;;;;;;0.00;0.00;;;;;13.32;60.66;99847.44;5047400;28;45424;-84
2021/11/01 10:27:15;;;;;;;;;0.00;0.00;;;;;13.49;60.70;99854.97;5073318;28;45622;-83
2021/11/01 10:29:56;;;;;;;;;0.00;0.00;;;;;13.47;59.65;99860.22;5086358;28;45299;-85
2021/11/01 10:32:34;;;;;;;;;0.00;0.00;;;;;13.46;59.46;99868.97;5082704;28;46098;-83
2021/11/01 10:35:20;;;;;;;;;0.00;0.00;;;;;13.12;59.66;99802.47;5066683;28;45513;-83
2021/11/01 10:38:26;;;;;;;;;0.00;0.00;;;;;13.51;59.46;99871.53;5081863;28;45586;-83
2021/11/01 11:14:18;;;;;;;;;0.00;0.00;;;;;13.53;56.86;99823.56;5080703;28;45418;-82
2021/11/01 11:28:01;;;;;;;;;0.00;0.00;;;;;13.89;56.70;99817.66;5074731;27;45456;-81
2021/11/01 11:33:46;;;;;;;;;0.00;0.00;;;;;13.21;56.91;99706.50;5081643;28;45369;-80
2021/11/01 11:47:06;;;;;;;;;0.00;0.00;;;;;13.43;54.72;99754.00;5074432;28;45382;-79
2021/11/01 11:49:38;;;;;;;;;0.00;0.00;;;;;14.00;54.27;99821.81;5080121;28;45519;-81
2021/11/01 11:52:09;;;;;;;;;0.00;0.00;;;;;14.04;53.52;99832.19;5083567;28;45315;-80
2021/11/01 11:54:42;;;;;;;;;0.00;0.00;;;;;13.92;53.99;99814.09;5082032;28;45439;-80
2021/11/01 11:57:33;;;;;;;;;0.00;0.00;;;;;13.49;54.69;99750.41;5081942;28;46044;-81
2021/11/01 12:00:00;;;;;;;;;0.00;0.00;;;;;13.87;54.04;99805.50;5062596;28;47092;-82
2021/11/01 12:02:38;;;;;;;;;0.00;0.00;;;;;13.91;54.18;99801.94;5080950;28;45370;-82
2021/11/01 12:05:11;;;;;;;;;0.00;0.00;;;;;13.84;53.48;99806.41;5079987;28;45598;-79
2021/11/01 12:07:58;;;;;;;;;0.00;0.00;;;;;13.46;54.14;99769.63;5083301;28;45517;-81
2021/11/01 12:14:12;;;;;;;;;0.00;0.00;;;;;13.77;54.44;99804.81;5082324;28;45452;-81
2021/11/01 12:18:40;;;;;;;;;0.00;0.00;;;;;13.54;54.88;99757.28;5073624;28;45431;-83
2021/11/01 12:21:06;;;;;;;;;0.00;0.00;;;;;13.48;53.88;99746.91;5081769;28;46152;-80
2021/11/01 12:23:39;;;;;;;;;0.00;0.00;;;;;13.66;54.50;99753.56;5080612;28;45423;-81
2021/11/01 12:26:15;;;;;;;;;0.00;0.00;;;;;13.58;53.99;99725.84;5080315;28;45426;-80
2021/11/01 12:28:42;;;;;;;;;0.00;0.00;;;;;13.72;54.12;99746.50;5069021;28;45663;-79
2021/11/01 12:31:09;;;;;;;;;0.00;0.00;;;;;13.62;54.14;99741.47;5071382;28;46917;-80
2021/11/01 12:33:41;;;;;;;;;0.00;0.00;;;;;13.66;54.45;99744.88;5078655;28;45521;-80
2021/11/01 12:36:09;;;;;;;;;1.00;0.00;;;;;13.70;54.91;99746.53;5054173;28;45647;-79
2021/11/01 12:41:32;;;;;;;;;0.75;0.75;;;;;13.44;55.27;99690.34;5077861;28;46033;-81
2021/11/01 12:45:25;;;;;;;;;0.00;0.00;;;;;13.99;54.89;99766.00;5086905;28;45385;-84
2021/11/01 12:57:37;;;;;;;;;0.00;0.00;;;;;13.83;55.41;99755.00;5080265;28;45299;-84
2021/11/01 13:00:06;;;;;;;;;0.00;0.00;;;;;13.55;55.44;99737.25;5079326;28;45519;-80
2021/11/01 13:02:35;;;;;;;;;0.00;0.00;;;;;13.57;55.74;99740.69;5079507;28;46452;-83
2021/11/01 13:05:06;;;;;;;;;0.00;0.00;;;;;12.94;55.76;99659.94;5045192;28;45571;-83
2021/11/01 13:07:47;;;;;;;;;0.00;0.00;;;;;13.15;56.32;99692.66;5058024;28;45394;-79
2021/11/01 13:18:10;;;;;;;;;0.00;0.00;;;;;13.25;57.64;99722.09;5081550;28;45459;-83
2021/11/01 13:20:47;;;;;;;;;0.75;0.00;;;;;13.42;58.26;99737.44;5082004;28;45434;-82
2021/11/01 13:23:14;;;;;;;;;0.00;0.00;;;;;13.33;58.93;99721.94;5082258;28;45406;-82
2021/11/01 13:38:56;;;;;;;;;0.00;0.00;;;;;12.97;60.19;99729.56;5082196;28;45448;-80
2021/11/01 13:41:30;;;;;;;;;0.00;0.00;;;;;12.86;60.68;99703.66;5081588;28;45364;-81
2021/11/01 13:44:24;;;;;;;;;0.00;0.00;;;;;12.99;60.79;99723.41;5087051;28;45338;-80
2021/11/01 13:46:58;;;;;;;;;0.00;0.00;;;;;12.95;60.76;99720.91;5085780;28;45405;-79
2021/11/01 13:49:29;;;;;;;;;0.00;0.00;;;;;12.67;61.21;99689.13;5084389;28;45355;-80
2021/11/01 13:52:20;;;;;;;;;0.00;0.00;;;;;12.85;61.43;99720.19;5089548;28;45358;-80
2021/11/01 13:58:03;;;;;;;;;0.00;0.00;;;;;12.73;63.49;99734.31;5060857;28;45500;-80
2021/11/01 14:00:45;;;;;;;;;0.00;0.00;;;;;12.66;64.41;99754.44;5088021;28;45348;-82
2021/11/01 14:12:12;;;;;;;;;0.00;0.00;;;;;12.03;63.34;99720.50;5092134;28;44698;-79
2021/11/01 14:14:43;;;;;;;;;0.00;0.00;;;;;11.94;63.92;99710.22;5075036;28;45381;-81
2021/11/01 14:33:27;;;;;;;;;0.00;0.00;;;;;12.08;65.91;99703.09;5085326;28;45422;-80
2021/11/01 15:06:27;;;;;;;;;0.00;0.00;;;;;10.67;65.11;99734.13;5096149;28;45240;-82
2021/11/01 15:20:54;;;;;;;;;0.00;0.00;;;;;10.73;66.66;99749.69;5095292;28;45693;-80
2021/11/01 15:26:05;;;;;;;;;0.00;0.00;;;;;10.79;66.90;99765.28;5095243;28;45308;-80
2021/11/01 15:34:21;;;;;;;;;0.00;0.00;;;;;11.07;67.63;99749.41;5064305;28;45485;-81
2021/11/01 15:39:43;;;;;;;;;0.00;0.00;;;;;11.14;67.17;99703.31;5083282;28;45532;-81
2021/11/01 16:20:11;;;;;;;;;0.00;0.00;;;;;11.24;68.07;99751.84;5093388;28;45382;-81
2021/11/01 16:22:41;;;;;;;;;0.00;0.00;;;;;11.18;68.30;99762.31;5073486;28;44829;-80
2021/11/01 16:25:07;;;;;;;;;0.00;0.00;;;;;11.12;68.70;99773.66;5088565;28;46216;-79
2021/11/01 16:27:34;;;;;;;;;0.00;0.00;;;;;10.76;68.42;99714.06;5087277;28;45417;-81
2021/11/01 16:30:12;;;;;;;;;0.00;0.00;;;;;10.81;68.96;99739.22;5086476;28;45591;-83
2021/11/01 16:32:46;;;;;;;;;0.00;0.00;;;;;10.75;69.41;99734.94;5061435;28;45556;-82
2021/11/01 16:35:16;;;;;;;;;0.00;0.00;;;;;10.94;69.73;99760.81;5069747;28;47563;-81
2021/11/01 16:37:52;;;;;;;;;0.75;0.00;;;;;10.69;69.33;99730.63;5064613;28;45381;-82
2021/11/01 16:40:22;;;;;;;;;0.00;0.00;;;;;10.85;69.68;99767.84;5061986;28;45324;-82
2021/11/01 16:42:47;;;;;;;;;0.00;0.00;;;;;10.71;69.29;99741.03;5082476;28;45551;-82
2021/11/01 16:45:37;;;;;;;;;0.00;0.00;;;;;10.86;69.94;99766.94;5079350;28;47070;-83
2021/11/01 16:48:03;;;;;;;;;0.00;0.00;;;;;10.68;70.06;99741.91;5073868;28;45417;-81
2021/11/01 16:50:28;;;;;;;;;0.00;0.00;;;;;10.43;70.14;99702.16;5082330;28;45492;-81
2021/11/01 16:52:54;;;;;;;;;0.00;0.00;;;;;10.86;70.29;99779.09;5082566;28;45397;-81
2021/11/01 16:55:24;;;;;;;;;0.00;0.00;;;;;10.48;70.00;99703.03;5082079;28;46318;-82
2021/11/01 16:57:57;;;;;;;;;0.00;0.00;;;;;10.63;70.36;99734.13;5082003;28;45438;-83
2021/11/01 17:00:29;;;;;;;;;0.00;0.00;;;;;10.87;70.42;99765.19;5088838;28;45333;-86
2021/11/01 17:03:48;;;;;;;;;0.50;0.50;;;;;10.97;70.53;99776.41;5092481;28;44765;-84
2021/11/01 17:09:07;;;;;;;;;0.00;0.00;;;;;10.54;70.30;99716.00;5101658;28;44812;-84
2021/11/01 17:22:20;;;;;;;;;0.00;0.00;;;;;10.94;70.50;99769.50;5081928;28;45460;-81
2021/11/01 17:25:08;;;;;;;;;0.00;0.00;;;;;10.98;70.51;99776.41;5080072;28;45572;-85
2021/11/01 18:38:55;;;;;;;;;0.00;0.00;;;;;10.69;71.01;99806.09;5096836;28;45544;-80
2021/11/01 18:41:26;;;;;;;;;0.00;0.00;;;;;10.73;70.97;99812.16;5093802;28;44859;-81
2021/11/01 18:52:09;;;;;;;;;1.00;1.00;;;;;11.06;70.51;99810.19;5079179;28;45230;-81
2021/11/01 18:54:38;;;;;;;;;0.00;0.00;;;;;11.15;70.64;99820.53;5082340;28;46959;-81
2021/11/01 18:57:05;;;;;;;;;0.00;0.00;;;;;11.12;70.26;99814.50;5082688;28;45351;-82
2021/11/01 18:59:35;;;;;;;;;0.00;0.00;;;;;11.01;70.31;99798.94;5065208;28;45342;-83
2021/11/01 19:04:36;;;;;;;;;0.00;0.00;;;;;11.23;70.06;99825.69;5083079;28;45454;-81
2021/11/01 19:07:11;;;;;;;;;0.00;0.00;;;;;11.27;70.08;99827.38;5062682;28;45525;-81
2021/11/01 20:04:59;;;;;;;;;0.00;0.00;;;;;11.29;69.63;99814.34;5087007;28;45295;-82
2021/11/01 20:08:20;;;;;;;;;0.00;0.00;;;;;11.21;69.83;99796.16;5082772;28;45579;-83
2021/11/01 20:10:27;;;;;;;;;0.00;0.00;;;;;11.18;69.83;99784.91;5065615;28;45470;-80
2021/11/01 20:13:14;;;;;;;;;0.00;0.00;;;;;11.17;69.69;99790.97;5085579;28;45301;-80
2021/11/01 20:15:54;;;;;;;;;0.25;0.00;;;;;11.14;69.92;99792.75;5081221;28;45382;-81
2021/11/01 21:25:52;;;;;;;;;3.00;0.50;;;;;11.23;67.76;99788.31;5080908;28;45540;-81
2021/11/01 21:28:19;;;;;;;;;1.00;1.00;;;;;11.20;67.86;99783.13;5068496;28;46674;-82
2021/11/01 21:30:44;;;;;;;;;0.00;0.00;;;;;11.23;67.65;99794.41;5076806;28;45827;-80
2021/11/01 21:33:14;;;;;;;;;0.00;0.00;;;;;11.17;67.52;99783.16;5062508;28;45614;-79
2021/11/01 21:35:44;;;;;;;;;0.00;0.00;;;;;11.00;67.33;99764.22;5081026;28;45441;-80
2021/11/01 21:38:12;;;;;;;;;0.00;0.00;;;;;10.92;67.26;99752.13;5081094;28;46946;-80
2021/11/01 21:40:48;;;;;;;;;0.00;0.00;;;;;11.08;67.75;99778.91;5079525;28;45516;-81
2021/11/01 21:43:14;;;;;;;;;0.00;0.00;;;;;11.06;66.97;99775.47;5065111;28;45403;-81
2021/11/01 21:45:40;;;;;;;;;0.00;0.00;;;;;11.14;67.23;99782.34;5077197;28;45888;-82
2021/11/01 21:48:06;;;;;;;;;0.00;0.00;;;;;11.13;66.93;99779.75;5082585;28;45468;-82
2021/11/01 21:50:32;;;;;;;;;0.00;0.00;;;;;10.98;67.23;99744.28;5060503;28;45437;-83
2021/11/01 21:53:00;;;;;;;;;0.00;0.00;;;;;10.95;67.05;99741.69;5083183;28;45217;-82
2021/11/01 21:55:27;;;;;;;;;0.00;0.00;;;;;11.20;67.14;99765.78;5081870;28;45340;-81
2021/11/01 21:57:57;;;;;;;;;0.00;0.00;;;;;11.21;67.25;99756.22;5080447;28;46153;-78
2021/11/01 22:00:41;;;;;;;;;0.00;0.00;;;;;11.28;67.39;99756.13;5079911;28;45523;-81
2021/11/01 22:24:54;;;;;;;;;0.50;0.00;;;;;11.32;66.77;99724.84;5084602;28;45445;-80
2021/11/01 22:48:36;;;;;;;;;0.00;0.00;;;;;11.43;67.06;99732.56;5084002;28;45280;-80
2021/11/01 22:56:34;;;;;;;;;0.00;0.00;;;;;11.41;67.18;99732.56;5083186;28;45355;-80
2021/11/01 22:59:03;;;;;;;;;0.00;0.00;;;;;11.33;67.51;99706.59;5079753;28;45379;-79
2021/11/01 23:01:36;;;;;;;;;0.00;0.00;;;;;11.26;67.07;99694.50;5083062;28;46551;-81
2021/11/01 23:04:10;;;;;;;;;0.00;0.00;;;;;11.34;67.31;99705.72;5063565;28;45501;-78
2021/11/01 23:31:58;;;;;;;;;0.00;0.00;;;;;10.81;67.84;99672.38;5060223;28;45491;-84
2021/11/01 23:34:24;;;;;;;;;0.00;0.00;;;;;11.03;67.86;99701.69;5046287;28;45737;-81
2021/11/01 23:36:49;;;;;;;;;0.75;0.00;;;;;10.18;67.78;99573.19;5060011;28;45480;-81
2021/11/01 23:39:15;;;;;;;;;0.00;0.00;;;;;11.00;67.77;99693.06;5042268;28;45522;-82
2021/11/01 23:41:45;;;;;;;;;0.00;0.00;;;;;10.64;67.64;99629.19;5009730;28;45482;-82
2021/11/01 23:44:11;;;;;;;;;0.00;0.00;;;;;10.75;67.81;99636.03;5074999;28;45328;-82
2021/11/01 23:46:37;;;;;;;;;0.00;0.00;;;;;10.68;68.21;99623.91;5080529;28;45129;-83
2021/11/01 23:49:13;;;;;;;;;0.00;0.00;;;;;11.10;67.96;99710.31;5044245;28;45569;-82
2021/11/01 23:51:39;;;;;;;;;0.00;0.00;;;;;10.82;68.17;99655.03;5043553;28;45763;-82
2021/11/01 23:54:35;;;;;;;;;0.00;0.00;;;;;10.94;67.83;99660.13;5057041;28;45750;-82
2021/11/01 23:57:01;;;;;;;;;0.00;0.00;;;;;11.17;67.83;99695.47;5037630;28;45508;-82
2021/11/01 23:59:26;;;;;;;;;0.00;0.00;;;;;10.92;67.60;99671.41;5037782;28;45891;-82
